sensor_id;sensor_type;location;lat;lon;timestamp;P1;durP1;ratioP1;P2;durP2;ratioP2
69083;SDS011;56185;48.526;9.044;2023-06-10T00:00:54;7.13;;;5.57;;
69083;SDS011;56185;48.526;9.044;2023-06-10T00:03:19;9.10;;;6.07;;
69083;SDS011;56185;48.526;9.044;2023-06-10T00:05:44;9.00;;;5.60;;
69083;SDS011;56185;48.526;9.044;2023-06-10T00:08:09;10.83;;;5.53;;
69083;SDS011;56185;48.526;9.044;2023-06-10T00:10:35;7.15;;;5.25;;
69083;SDS011;56185;48.526;9.044;2023-06-10T00:13:03;7.38;;;5.20;;
69083;SDS011;56185;48.526;9.044;2023-06-10T00:15:29;8.63;;;5.25;;
69083;SDS011;56185;48.526;9.044;2023-06-10T00:17:55;7.82;;;5.57;;
69083;SDS011;56185;48.526;9.044;2023-06-10T00:20:20;7.97;;;5.67;;
69083;SDS011;56185;48.526;9.044;2023-06-10T00:22:46;6.88;;;5.85;;
69083;SDS011;56185;48.526;9.044;2023-06-10T00:25:11;6.37;;;5.47;;
69083;SDS011;56185;48.526;9.044;2023-06-10T00:27:36;7.73;;;6.20;;
69083;SDS011;56185;48.526;9.044;2023-06-10T00:30:03;9.93;;;5.73;;
69083;SDS011;56185;48.526;9.044;2023-06-10T00:32:29;8.10;;;5.72;;
69083;SDS011;56185;48.526;9.044;2023-06-10T00:34:54;8.43;;;5.68;;
69083;SDS011;56185;48.526;9.044;2023-06-10T00:37:19;7.73;;;5.87;;
69083;SDS011;56185;48.526;9.044;2023-06-10T00:39:45;6.43;;;5.53;;
69083;SDS011;56185;48.526;9.044;2023-06-10T00:42:10;9.50;;;5.70;;
69083;SDS011;56185;48.526;9.044;2023-06-10T00:44:35;6.33;;;5.60;;
69083;SDS011;56185;48.526;9.044;2023-06-10T00:47:00;7.50;;;5.40;;
69083;SDS011;56185;48.526;9.044;2023-06-10T00:49:26;8.00;;;5.70;;
69083;SDS011;56185;48.526;9.044;2023-06-10T00:51:51;6.57;;;5.13;;
69083;SDS011;56185;48.526;9.044;2023-06-10T00:54:17;6.40;;;5.32;;
69083;SDS011;56185;48.526;9.044;2023-06-10T00:56:42;8.35;;;5.68;;
69083;SDS011;56185;48.526;9.044;2023-06-10T00:59:08;7.40;;;5.75;;
69083;SDS011;56185;48.526;9.044;2023-06-10T01:01:33;6.78;;;5.57;;
69083;SDS011;56185;48.526;9.044;2023-06-10T01:03:59;6.40;;;5.60;;
69083;SDS011;56185;48.526;9.044;2023-06-10T01:06:31;7.97;;;5.97;;
69083;SDS011;56185;48.526;9.044;2023-06-10T01:11:51;7.70;;;5.80;;
69083;SDS011;56185;48.526;9.044;2023-06-10T01:14:22;7.22;;;5.75;;
69083;SDS011;56185;48.526;9.044;2023-06-10T01:16:47;7.80;;;6.80;;
69083;SDS011;56185;48.526;9.044;2023-06-10T01:19:13;8.32;;;6.25;;
69083;SDS011;56185;48.526;9.044;2023-06-10T01:21:38;7.97;;;6.27;;
69083;SDS011;56185;48.526;9.044;2023-06-10T01:24:03;7.32;;;6.30;;
69083;SDS011;56185;48.526;9.044;2023-06-10T01:26:30;9.73;;;6.53;;
69083;SDS011;56185;48.526;9.044;2023-06-10T01:29:00;7.72;;;6.13;;
69083;SDS011;56185;48.526;9.044;2023-06-10T01:31:42;13.70;;;6.43;;
69083;SDS011;56185;48.526;9.044;2023-06-10T01:34:11;7.50;;;6.40;;
69083;SDS011;56185;48.526;9.044;2023-06-10T01:36:39;7.50;;;6.70;;
69083;SDS011;56185;48.526;9.044;2023-06-10T01:39:06;8.18;;;6.22;;
69083;SDS011;56185;48.526;9.044;2023-06-10T01:41:33;7.88;;;5.65;;
69083;SDS011;56185;48.526;9.044;2023-06-10T01:44:00;6.88;;;5.90;;
69083;SDS011;56185;48.526;9.044;2023-06-10T01:46:25;6.90;;;6.07;;
69083;SDS011;56185;48.526;9.044;2023-06-10T01:48:50;7.30;;;5.95;;
69083;SDS011;56185;48.526;9.044;2023-06-10T01:51:16;6.67;;;5.60;;
69083;SDS011;56185;48.526;9.044;2023-06-10T01:53:41;6.68;;;5.72;;
69083;SDS011;56185;48.526;9.044;2023-06-10T01:56:06;6.60;;;5.90;;
69083;SDS011;56185;48.526;9.044;2023-06-10T01:58:31;7.28;;;5.53;;
69083;SDS011;56185;48.526;9.044;2023-06-10T02:00:57;6.77;;;5.70;;
69083;SDS011;56185;48.526;9.044;2023-06-10T02:03:23;7.50;;;6.07;;
69083;SDS011;56185;48.526;9.044;2023-06-10T02:05:48;8.87;;;6.53;;
69083;SDS011;56185;48.526;9.044;2023-06-10T02:08:13;8.88;;;6.50;;
69083;SDS011;56185;48.526;9.044;2023-06-10T02:10:38;8.37;;;5.90;;
69083;SDS011;56185;48.526;9.044;2023-06-10T02:13:04;8.57;;;6.20;;
69083;SDS011;56185;48.526;9.044;2023-06-10T02:15:29;7.07;;;6.18;;
69083;SDS011;56185;48.526;9.044;2023-06-10T02:17:54;9.90;;;6.27;;
69083;SDS011;56185;48.526;9.044;2023-06-10T02:20:19;7.70;;;6.33;;
69083;SDS011;56185;48.526;9.044;2023-06-10T02:22:45;7.93;;;6.75;;
69083;SDS011;56185;48.526;9.044;2023-06-10T02:25:10;6.67;;;5.90;;
69083;SDS011;56185;48.526;9.044;2023-06-10T02:27:35;7.17;;;6.40;;
69083;SDS011;56185;48.526;9.044;2023-06-10T02:30:00;7.53;;;6.30;;
69083;SDS011;56185;48.526;9.044;2023-06-10T02:32:26;8.10;;;6.23;;
69083;SDS011;56185;48.526;9.044;2023-06-10T02:34:51;7.65;;;6.32;;
69083;SDS011;56185;48.526;9.044;2023-06-10T02:37:16;6.43;;;5.70;;
69083;SDS011;56185;48.526;9.044;2023-06-10T02:39:42;8.93;;;5.63;;
69083;SDS011;56185;48.526;9.044;2023-06-10T02:42:08;9.70;;;6.28;;
69083;SDS011;56185;48.526;9.044;2023-06-10T02:44:33;8.38;;;6.03;;
69083;SDS011;56185;48.526;9.044;2023-06-10T02:46:58;8.02;;;5.97;;
69083;SDS011;56185;48.526;9.044;2023-06-10T02:49:23;8.70;;;6.07;;
69083;SDS011;56185;48.526;9.044;2023-06-10T02:51:49;8.15;;;6.05;;
69083;SDS011;56185;48.526;9.044;2023-06-10T02:54:15;7.03;;;6.13;;
69083;SDS011;56185;48.526;9.044;2023-06-10T02:56:40;9.30;;;6.60;;
69083;SDS011;56185;48.526;9.044;2023-06-10T02:59:06;7.20;;;6.10;;
69083;SDS011;56185;48.526;9.044;2023-06-10T03:01:31;8.50;;;6.30;;
69083;SDS011;56185;48.526;9.044;2023-06-10T03:03:56;9.73;;;6.70;;
69083;SDS011;56185;48.526;9.044;2023-06-10T03:06:21;6.77;;;5.90;;
69083;SDS011;56185;48.526;9.044;2023-06-10T03:08:46;10.32;;;6.85;;
69083;SDS011;56185;48.526;9.044;2023-06-10T03:11:12;8.30;;;6.97;;
69083;SDS011;56185;48.526;9.044;2023-06-10T03:13:38;8.83;;;6.43;;
69083;SDS011;56185;48.526;9.044;2023-06-10T03:16:03;8.10;;;6.22;;
69083;SDS011;56185;48.526;9.044;2023-06-10T03:18:28;8.93;;;6.43;;
69083;SDS011;56185;48.526;9.044;2023-06-10T03:20:54;8.30;;;6.50;;
69083;SDS011;56185;48.526;9.044;2023-06-10T03:23:19;8.30;;;6.63;;
69083;SDS011;56185;48.526;9.044;2023-06-10T03:25:45;8.32;;;6.85;;
69083;SDS011;56185;48.526;9.044;2023-06-10T03:28:10;8.20;;;6.97;;
69083;SDS011;56185;48.526;9.044;2023-06-10T03:30:35;7.90;;;6.55;;
69083;SDS011;56185;48.526;9.044;2023-06-10T03:33:01;8.27;;;7.10;;
69083;SDS011;56185;48.526;9.044;2023-06-10T03:35:26;9.50;;;7.00;;
69083;SDS011;56185;48.526;9.044;2023-06-10T03:37:51;8.20;;;6.43;;
69083;SDS011;56185;48.526;9.044;2023-06-10T03:40:17;7.28;;;6.47;;
69083;SDS011;56185;48.526;9.044;2023-06-10T03:42:42;8.20;;;7.03;;
69083;SDS011;56185;48.526;9.044;2023-06-10T03:45:07;10.82;;;7.50;;
69083;SDS011;56185;48.526;9.044;2023-06-10T03:47:33;9.25;;;6.85;;
69083;SDS011;56185;48.526;9.044;2023-06-10T03:49:59;8.02;;;6.60;;
69083;SDS011;56185;48.526;9.044;2023-06-10T03:52:24;8.23;;;7.20;;
69083;SDS011;56185;48.526;9.044;2023-06-10T03:54:49;8.70;;;6.40;;
69083;SDS011;56185;48.526;9.044;2023-06-10T03:57:15;8.13;;;6.43;;
69083;SDS011;56185;48.526;9.044;2023-06-10T03:59:40;8.03;;;6.30;;
69083;SDS011;56185;48.526;9.044;2023-06-10T04:02:05;9.70;;;6.57;;
69083;SDS011;56185;48.526;9.044;2023-06-10T04:04:30;10.00;;;6.73;;
69083;SDS011;56185;48.526;9.044;2023-06-10T04:06:56;11.23;;;7.33;;
69083;SDS011;56185;48.526;9.044;2023-06-10T04:09:21;10.03;;;7.03;;
69083;SDS011;56185;48.526;9.044;2023-06-10T04:11:46;8.90;;;6.80;;
69083;SDS011;56185;48.526;9.044;2023-06-10T04:14:11;8.80;;;6.97;;
69083;SDS011;56185;48.526;9.044;2023-06-10T04:16:36;9.47;;;7.20;;
69083;SDS011;56185;48.526;9.044;2023-06-10T04:19:02;8.03;;;7.23;;
69083;SDS011;56185;48.526;9.044;2023-06-10T04:21:27;8.13;;;7.13;;
69083;SDS011;56185;48.526;9.044;2023-06-10T04:23:52;8.50;;;7.40;;
69083;SDS011;56185;48.526;9.044;2023-06-10T04:26:18;9.15;;;7.10;;
69083;SDS011;56185;48.526;9.044;2023-06-10T04:28:43;8.93;;;7.30;;
69083;SDS011;56185;48.526;9.044;2023-06-10T04:31:09;8.32;;;7.18;;
69083;SDS011;56185;48.526;9.044;2023-06-10T04:33:34;8.82;;;7.13;;
69083;SDS011;56185;48.526;9.044;2023-06-10T04:35:59;10.55;;;7.30;;
69083;SDS011;56185;48.526;9.044;2023-06-10T04:38:25;11.43;;;6.83;;
69083;SDS011;56185;48.526;9.044;2023-06-10T04:40:50;9.40;;;7.57;;
69083;SDS011;56185;48.526;9.044;2023-06-10T04:43:15;8.47;;;7.13;;
69083;SDS011;56185;48.526;9.044;2023-06-10T04:45:40;9.63;;;7.53;;
69083;SDS011;56185;48.526;9.044;2023-06-10T04:48:06;10.27;;;7.20;;
69083;SDS011;56185;48.526;9.044;2023-06-10T04:50:31;8.57;;;7.57;;
69083;SDS011;56185;48.526;9.044;2023-06-10T04:52:56;9.07;;;7.17;;
69083;SDS011;56185;48.526;9.044;2023-06-10T04:55:21;11.03;;;7.67;;
69083;SDS011;56185;48.526;9.044;2023-06-10T04:57:47;8.63;;;7.13;;
69083;SDS011;56185;48.526;9.044;2023-06-10T05:00:12;9.47;;;7.37;;
69083;SDS011;56185;48.526;9.044;2023-06-10T05:02:37;11.23;;;8.88;;
69083;SDS011;56185;48.526;9.044;2023-06-10T05:05:03;10.00;;;7.07;;
69083;SDS011;56185;48.526;9.044;2023-06-10T05:07:28;8.20;;;7.20;;
69083;SDS011;56185;48.526;9.044;2023-06-10T05:09:53;8.83;;;6.90;;
69083;SDS011;56185;48.526;9.044;2023-06-10T05:12:18;10.03;;;7.33;;
69083;SDS011;56185;48.526;9.044;2023-06-10T05:14:44;6.80;;;6.10;;
69083;SDS011;56185;48.526;9.044;2023-06-10T05:17:09;8.63;;;7.10;;
69083;SDS011;56185;48.526;9.044;2023-06-10T05:19:34;7.27;;;6.40;;
69083;SDS011;56185;48.526;9.044;2023-06-10T05:21:59;7.37;;;6.53;;
69083;SDS011;56185;48.526;9.044;2023-06-10T05:24:24;8.53;;;7.00;;
69083;SDS011;56185;48.526;9.044;2023-06-10T05:26:50;9.47;;;7.00;;
69083;SDS011;56185;48.526;9.044;2023-06-10T05:29:15;11.40;;;7.53;;
69083;SDS011;56185;48.526;9.044;2023-06-10T05:31:41;8.38;;;6.85;;
69083;SDS011;56185;48.526;9.044;2023-06-10T05:34:06;10.07;;;7.15;;
69083;SDS011;56185;48.526;9.044;2023-06-10T05:36:31;8.00;;;6.67;;
69083;SDS011;56185;48.526;9.044;2023-06-10T05:38:57;7.97;;;7.00;;
69083;SDS011;56185;48.526;9.044;2023-06-10T05:41:22;8.03;;;6.83;;
69083;SDS011;56185;48.526;9.044;2023-06-10T05:43:47;8.10;;;6.67;;
69083;SDS011;56185;48.526;9.044;2023-06-10T05:46:13;8.80;;;6.57;;
69083;SDS011;56185;48.526;9.044;2023-06-10T05:48:38;7.80;;;6.60;;
69083;SDS011;56185;48.526;9.044;2023-06-10T05:51:03;8.37;;;6.93;;
69083;SDS011;56185;48.526;9.044;2023-06-10T05:53:28;8.63;;;6.63;;
69083;SDS011;56185;48.526;9.044;2023-06-10T05:55:54;10.10;;;7.60;;
69083;SDS011;56185;48.526;9.044;2023-06-10T05:58:19;9.17;;;7.10;;
69083;SDS011;56185;48.526;9.044;2023-06-10T06:00:45;9.25;;;6.90;;
69083;SDS011;56185;48.526;9.044;2023-06-10T06:03:10;8.17;;;7.07;;
69083;SDS011;56185;48.526;9.044;2023-06-10T06:05:36;8.00;;;7.18;;
69083;SDS011;56185;48.526;9.044;2023-06-10T06:08:01;8.30;;;6.88;;
69083;SDS011;56185;48.526;9.044;2023-06-10T06:10:27;7.80;;;7.00;;
69083;SDS011;56185;48.526;9.044;2023-06-10T06:12:52;10.47;;;6.97;;
69083;SDS011;56185;48.526;9.044;2023-06-10T06:15:17;9.80;;;6.80;;
69083;SDS011;56185;48.526;9.044;2023-06-10T06:17:42;8.93;;;6.73;;
69083;SDS011;56185;48.526;9.044;2023-06-10T06:20:07;7.33;;;6.43;;
69083;SDS011;56185;48.526;9.044;2023-06-10T06:22:33;8.13;;;6.53;;
69083;SDS011;56185;48.526;9.044;2023-06-10T06:24:58;8.37;;;6.83;;
69083;SDS011;56185;48.526;9.044;2023-06-10T06:27:23;10.25;;;6.50;;
69083;SDS011;56185;48.526;9.044;2023-06-10T06:29:49;8.90;;;6.77;;
69083;SDS011;56185;48.526;9.044;2023-06-10T06:32:14;7.63;;;6.53;;
69083;SDS011;56185;48.526;9.044;2023-06-10T06:34:39;7.57;;;6.28;;
69083;SDS011;56185;48.526;9.044;2023-06-10T06:37:04;8.10;;;6.43;;
69083;SDS011;56185;48.526;9.044;2023-06-10T06:39:30;10.65;;;6.60;;
69083;SDS011;56185;48.526;9.044;2023-06-10T06:41:55;10.13;;;6.40;;
69083;SDS011;56185;48.526;9.044;2023-06-10T06:44:20;8.27;;;6.20;;
69083;SDS011;56185;48.526;9.044;2023-06-10T06:46:45;8.90;;;6.10;;
69083;SDS011;56185;48.526;9.044;2023-06-10T06:49:11;7.50;;;6.20;;
69083;SDS011;56185;48.526;9.044;2023-06-10T06:51:36;7.50;;;6.20;;
69083;SDS011;56185;48.526;9.044;2023-06-10T06:54:01;6.53;;;5.73;;
69083;SDS011;56185;48.526;9.044;2023-06-10T06:56:26;6.57;;;5.80;;
69083;SDS011;56185;48.526;9.044;2023-06-10T06:58:52;7.07;;;6.20;;
69083;SDS011;56185;48.526;9.044;2023-06-10T07:01:17;7.70;;;6.40;;
69083;SDS011;56185;48.526;9.044;2023-06-10T07:03:42;8.05;;;6.60;;
69083;SDS011;56185;48.526;9.044;2023-06-10T07:06:07;10.27;;;6.90;;
69083;SDS011;56185;48.526;9.044;2023-06-10T07:08:33;8.10;;;6.43;;
69083;SDS011;56185;48.526;9.044;2023-06-10T07:10:58;7.13;;;5.87;;
69083;SDS011;56185;48.526;9.044;2023-06-10T07:13:23;7.27;;;6.00;;
69083;SDS011;56185;48.526;9.044;2023-06-10T07:15:48;6.10;;;5.50;;
69083;SDS011;56185;48.526;9.044;2023-06-10T07:18:14;7.40;;;5.68;;
69083;SDS011;56185;48.526;9.044;2023-06-10T07:20:40;8.73;;;5.63;;
69083;SDS011;56185;48.526;9.044;2023-06-10T07:23:05;6.33;;;5.10;;
69083;SDS011;56185;48.526;9.044;2023-06-10T07:25:31;6.07;;;5.40;;
69083;SDS011;56185;48.526;9.044;2023-06-10T07:27:56;6.47;;;5.47;;
69083;SDS011;56185;48.526;9.044;2023-06-10T07:30:21;7.67;;;5.40;;
69083;SDS011;56185;48.526;9.044;2023-06-10T07:32:46;6.27;;;5.60;;
69083;SDS011;56185;48.526;9.044;2023-06-10T07:35:11;6.90;;;5.13;;
69083;SDS011;56185;48.526;9.044;2023-06-10T07:37:37;6.67;;;5.33;;
69083;SDS011;56185;48.526;9.044;2023-06-10T07:40:02;5.45;;;4.88;;
69083;SDS011;56185;48.526;9.044;2023-06-10T07:42:28;7.13;;;5.20;;
69083;SDS011;56185;48.526;9.044;2023-06-10T07:44:53;5.87;;;5.20;;
69083;SDS011;56185;48.526;9.044;2023-06-10T07:47:18;5.67;;;5.07;;
69083;SDS011;56185;48.526;9.044;2023-06-10T07:49:43;5.83;;;5.10;;
69083;SDS011;56185;48.526;9.044;2023-06-10T07:52:09;5.87;;;4.70;;
69083;SDS011;56185;48.526;9.044;2023-06-10T07:54:34;8.30;;;4.90;;
69083;SDS011;56185;48.526;9.044;2023-06-10T07:56:59;5.80;;;4.70;;
69083;SDS011;56185;48.526;9.044;2023-06-10T07:59:24;6.30;;;4.90;;
69083;SDS011;56185;48.526;9.044;2023-06-10T08:01:49;6.70;;;4.73;;
69083;SDS011;56185;48.526;9.044;2023-06-10T08:04:15;6.00;;;4.90;;
69083;SDS011;56185;48.526;9.044;2023-06-10T08:06:40;7.50;;;4.60;;
69083;SDS011;56185;48.526;9.044;2023-06-10T08:09:05;6.03;;;4.63;;
69083;SDS011;56185;48.526;9.044;2023-06-10T08:11:30;6.17;;;5.10;;
69083;SDS011;56185;48.526;9.044;2023-06-10T08:13:56;5.53;;;4.57;;
69083;SDS011;56185;48.526;9.044;2023-06-10T08:16:21;6.50;;;4.20;;
69083;SDS011;56185;48.526;9.044;2023-06-10T08:18:46;6.47;;;4.53;;
69083;SDS011;56185;48.526;9.044;2023-06-10T08:21:11;5.40;;;4.30;;
69083;SDS011;56185;48.526;9.044;2023-06-10T08:23:37;6.20;;;4.43;;
69083;SDS011;56185;48.526;9.044;2023-06-10T08:26:02;5.20;;;4.60;;
69083;SDS011;56185;48.526;9.044;2023-06-10T08:28:27;5.07;;;4.20;;
69083;SDS011;56185;48.526;9.044;2023-06-10T08:30:52;5.57;;;4.50;;
69083;SDS011;56185;48.526;9.044;2023-06-10T08:33:17;6.87;;;4.23;;
69083;SDS011;56185;48.526;9.044;2023-06-10T08:35:43;7.60;;;4.20;;
69083;SDS011;56185;48.526;9.044;2023-06-10T08:38:08;5.67;;;4.10;;
69083;SDS011;56185;48.526;9.044;2023-06-10T08:40:34;9.73;;;4.38;;
69083;SDS011;56185;48.526;9.044;2023-06-10T08:45:32;5.82;;;4.10;;
69083;SDS011;56185;48.526;9.044;2023-06-10T08:48:00;5.40;;;4.40;;
69083;SDS011;56185;48.526;9.044;2023-06-10T08:50:27;4.95;;;3.90;;
69083;SDS011;56185;48.526;9.044;2023-06-10T08:52:53;4.97;;;3.90;;
69083;SDS011;56185;48.526;9.044;2023-06-10T08:55:23;5.15;;;3.70;;
69083;SDS011;56185;48.526;9.044;2023-06-10T08:57:59;4.72;;;3.90;;
69083;SDS011;56185;48.526;9.044;2023-06-10T09:00:25;5.13;;;3.83;;
69083;SDS011;56185;48.526;9.044;2023-06-10T09:02:52;4.20;;;3.60;;
69083;SDS011;56185;48.526;9.044;2023-06-10T09:05:17;4.78;;;3.60;;
69083;SDS011;56185;48.526;9.044;2023-06-10T09:07:42;7.25;;;3.55;;
69083;SDS011;56185;48.526;9.044;2023-06-10T09:10:09;4.70;;;3.85;;
69083;SDS011;56185;48.526;9.044;2023-06-10T09:12:36;7.22;;;3.80;;
69083;SDS011;56185;48.526;9.044;2023-06-10T09:15:01;3.90;;;3.40;;
69083;SDS011;56185;48.526;9.044;2023-06-10T09:17:27;5.47;;;4.10;;
69083;SDS011;56185;48.526;9.044;2023-06-10T09:19:53;6.45;;;3.70;;
69083;SDS011;56185;48.526;9.044;2023-06-10T09:22:18;4.05;;;3.63;;
69083;SDS011;56185;48.526;9.044;2023-06-10T09:24:43;6.22;;;3.88;;
69083;SDS011;56185;48.526;9.044;2023-06-10T09:27:09;4.37;;;3.70;;
69083;SDS011;56185;48.526;9.044;2023-06-10T09:29:45;4.20;;;3.60;;
69083;SDS011;56185;48.526;9.044;2023-06-10T09:32:13;5.18;;;3.75;;
69083;SDS011;56185;48.526;9.044;2023-06-10T09:34:38;4.38;;;3.50;;
69083;SDS011;56185;48.526;9.044;2023-06-10T09:37:04;4.00;;;3.60;;
69083;SDS011;56185;48.526;9.044;2023-06-10T09:39:29;4.65;;;3.75;;
69083;SDS011;56185;48.526;9.044;2023-06-10T09:41:55;5.20;;;3.47;;
69083;SDS011;56185;48.526;9.044;2023-06-10T09:44:20;4.13;;;3.60;;
69083;SDS011;56185;48.526;9.044;2023-06-10T09:46:47;3.70;;;3.30;;
69083;SDS011;56185;48.526;9.044;2023-06-10T09:49:13;4.35;;;3.65;;
69083;SDS011;56185;48.526;9.044;2023-06-10T09:51:48;4.53;;;3.70;;
69083;SDS011;56185;48.526;9.044;2023-06-10T09:54:15;3.90;;;3.17;;
69083;SDS011;56185;48.526;9.044;2023-06-10T09:56:40;4.10;;;3.40;;
69083;SDS011;56185;48.526;9.044;2023-06-10T09:59:05;4.33;;;3.17;;
69083;SDS011;56185;48.526;9.044;2023-06-10T10:01:30;4.50;;;3.40;;
69083;SDS011;56185;48.526;9.044;2023-06-10T10:03:56;4.03;;;3.30;;
69083;SDS011;56185;48.526;9.044;2023-06-10T10:06:21;4.17;;;3.23;;
69083;SDS011;56185;48.526;9.044;2023-06-10T10:08:47;5.47;;;3.27;;
69083;SDS011;56185;48.526;9.044;2023-06-10T10:11:14;4.45;;;3.20;;
69083;SDS011;56185;48.526;9.044;2023-06-10T10:13:42;3.92;;;3.20;;
69083;SDS011;56185;48.526;9.044;2023-06-10T10:16:11;5.03;;;3.50;;
69083;SDS011;56185;48.526;9.044;2023-06-10T10:18:40;5.53;;;3.00;;
69083;SDS011;56185;48.526;9.044;2023-06-10T10:21:13;4.53;;;3.35;;
69083;SDS011;56185;48.526;9.044;2023-06-10T10:23:47;3.88;;;3.00;;
69083;SDS011;56185;48.526;9.044;2023-06-10T10:26:20;4.80;;;3.20;;
69083;SDS011;56185;48.526;9.044;2023-06-10T10:28:57;6.18;;;3.20;;
69083;SDS011;56185;48.526;9.044;2023-06-10T10:31:30;3.30;;;3.00;;
69083;SDS011;56185;48.526;9.044;2023-06-10T10:33:58;3.63;;;2.90;;
69083;SDS011;56185;48.526;9.044;2023-06-10T10:36:24;4.03;;;2.80;;
69083;SDS011;56185;48.526;9.044;2023-06-10T10:38:50;4.55;;;2.88;;
69083;SDS011;56185;48.526;9.044;2023-06-10T10:41:16;4.63;;;3.15;;
69083;SDS011;56185;48.526;9.044;2023-06-10T10:43:43;3.78;;;3.00;;
69083;SDS011;56185;48.526;9.044;2023-06-10T10:46:13;4.40;;;3.20;;
69083;SDS011;56185;48.526;9.044;2023-06-10T10:48:39;4.78;;;2.83;;
69083;SDS011;56185;48.526;9.044;2023-06-10T10:51:05;3.40;;;2.80;;
69083;SDS011;56185;48.526;9.044;2023-06-10T10:53:30;4.15;;;3.13;;
69083;SDS011;56185;48.526;9.044;2023-06-10T10:55:59;3.03;;;2.70;;
69083;SDS011;56185;48.526;9.044;2023-06-10T10:58:24;4.22;;;3.17;;
69083;SDS011;56185;48.526;9.044;2023-06-10T11:00:50;3.58;;;2.80;;
69083;SDS011;56185;48.526;9.044;2023-06-10T11:03:16;4.30;;;2.58;;
69083;SDS011;56185;48.526;9.044;2023-06-10T11:05:42;3.83;;;2.95;;
69083;SDS011;56185;48.526;9.044;2023-06-10T11:08:09;3.20;;;2.65;;
69083;SDS011;56185;48.526;9.044;2023-06-10T11:10:36;5.00;;;3.00;;
69083;SDS011;56185;48.526;9.044;2023-06-10T11:13:36;3.75;;;2.70;;
69083;SDS011;56185;48.526;9.044;2023-06-10T11:15:56;3.60;;;2.67;;
69083;SDS011;56185;48.526;9.044;2023-06-10T11:28:42;3.13;;;2.80;;
69083;SDS011;56185;48.526;9.044;2023-06-10T11:33:58;4.00;;;3.00;;
69083;SDS011;56185;48.526;9.044;2023-06-10T11:36:25;4.35;;;2.75;;
69083;SDS011;56185;48.526;9.044;2023-06-10T11:38:55;3.20;;;2.70;;
69083;SDS011;56185;48.526;9.044;2023-06-10T11:41:23;3.45;;;3.00;;
69083;SDS011;56185;48.526;9.044;2023-06-10T11:43:49;3.95;;;3.03;;
69083;SDS011;56185;48.526;9.044;2023-06-10T11:46:14;5.77;;;2.87;;
69083;SDS011;56185;48.526;9.044;2023-06-10T11:48:49;3.63;;;2.80;;
69083;SDS011;56185;48.526;9.044;2023-06-10T11:51:19;3.97;;;2.63;;
69083;SDS011;56185;48.526;9.044;2023-06-10T11:53:44;3.38;;;3.00;;
69083;SDS011;56185;48.526;9.044;2023-06-10T11:56:10;3.30;;;2.83;;
69083;SDS011;56185;48.526;9.044;2023-06-10T11:58:35;3.00;;;2.65;;
69083;SDS011;56185;48.526;9.044;2023-06-10T12:01:01;4.57;;;2.70;;
69083;SDS011;56185;48.526;9.044;2023-06-10T12:03:26;3.93;;;2.63;;
69083;SDS011;56185;48.526;9.044;2023-06-10T12:08:26;3.40;;;2.80;;
69083;SDS011;56185;48.526;9.044;2023-06-10T12:10:52;3.80;;;2.40;;
69083;SDS011;56185;48.526;9.044;2023-06-10T12:13:17;3.28;;;2.63;;
69083;SDS011;56185;48.526;9.044;2023-06-10T12:15:43;3.10;;;2.73;;
69083;SDS011;56185;48.526;9.044;2023-06-10T12:18:08;3.05;;;2.75;;
69083;SDS011;56185;48.526;9.044;2023-06-10T12:20:42;4.82;;;2.60;;
69083;SDS011;56185;48.526;9.044;2023-06-10T12:23:09;4.50;;;2.83;;
69083;SDS011;56185;48.526;9.044;2023-06-10T12:25:34;3.33;;;2.70;;
69083;SDS011;56185;48.526;9.044;2023-06-10T12:27:59;3.70;;;3.00;;
69083;SDS011;56185;48.526;9.044;2023-06-10T12:30:27;3.60;;;2.60;;
69083;SDS011;56185;48.526;9.044;2023-06-10T12:32:52;3.58;;;2.90;;
69083;SDS011;56185;48.526;9.044;2023-06-10T12:35:18;4.85;;;2.95;;
69083;SDS011;56185;48.526;9.044;2023-06-10T12:38:03;3.72;;;2.70;;
69083;SDS011;56185;48.526;9.044;2023-06-10T12:40:30;3.40;;;2.80;;
69083;SDS011;56185;48.526;9.044;2023-06-10T12:43:01;4.28;;;2.80;;
69083;SDS011;56185;48.526;9.044;2023-06-10T12:45:27;4.60;;;2.78;;
69083;SDS011;56185;48.526;9.044;2023-06-10T12:50:49;2.92;;;2.45;;
69083;SDS011;56185;48.526;9.044;2023-06-10T12:53:16;3.55;;;2.40;;
69083;SDS011;56185;48.526;9.044;2023-06-10T12:55:41;5.17;;;2.40;;
69083;SDS011;56185;48.526;9.044;2023-06-10T12:58:06;3.70;;;2.30;;
69083;SDS011;56185;48.526;9.044;2023-06-10T13:00:32;3.97;;;2.30;;
69083;SDS011;56185;48.526;9.044;2023-06-10T13:02:59;3.00;;;2.50;;
69083;SDS011;56185;48.526;9.044;2023-06-10T13:05:25;6.93;;;2.50;;
69083;SDS011;56185;48.526;9.044;2023-06-10T13:07:50;3.83;;;2.43;;
69083;SDS011;56185;48.526;9.044;2023-06-10T13:10:16;2.60;;;2.20;;
69083;SDS011;56185;48.526;9.044;2023-06-10T13:12:42;2.90;;;2.42;;
69083;SDS011;56185;48.526;9.044;2023-06-10T13:15:08;3.53;;;2.45;;
69083;SDS011;56185;48.526;9.044;2023-06-10T13:17:33;2.78;;;2.30;;
69083;SDS011;56185;48.526;9.044;2023-06-10T13:19:58;3.60;;;2.60;;
69083;SDS011;56185;48.526;9.044;2023-06-10T13:22:24;2.80;;;2.50;;
69083;SDS011;56185;48.526;9.044;2023-06-10T13:24:49;4.27;;;2.40;;
69083;SDS011;56185;48.526;9.044;2023-06-10T13:27:14;3.20;;;2.50;;
69083;SDS011;56185;48.526;9.044;2023-06-10T13:29:39;3.30;;;2.43;;
69083;SDS011;56185;48.526;9.044;2023-06-10T13:32:05;3.60;;;2.33;;
69083;SDS011;56185;48.526;9.044;2023-06-10T13:34:31;2.83;;;2.33;;
69083;SDS011;56185;48.526;9.044;2023-06-10T13:36:56;3.90;;;2.30;;
69083;SDS011;56185;48.526;9.044;2023-06-10T13:39:21;2.60;;;2.20;;
69083;SDS011;56185;48.526;9.044;2023-06-10T13:41:47;3.33;;;2.10;;
69083;SDS011;56185;48.526;9.044;2023-06-10T13:44:12;2.30;;;2.10;;
69083;SDS011;56185;48.526;9.044;2023-06-10T13:46:37;2.67;;;2.10;;
69083;SDS011;56185;48.526;9.044;2023-06-10T13:49:02;3.40;;;2.30;;
69083;SDS011;56185;48.526;9.044;2023-06-10T13:51:28;3.93;;;2.30;;
69083;SDS011;56185;48.526;9.044;2023-06-10T13:53:53;2.70;;;2.40;;
69083;SDS011;56185;48.526;9.044;2023-06-10T13:56:18;4.18;;;2.30;;
69083;SDS011;56185;48.526;9.044;2023-06-10T13:58:43;3.23;;;2.20;;
69083;SDS011;56185;48.526;9.044;2023-06-10T14:01:09;2.70;;;2.37;;
69083;SDS011;56185;48.526;9.044;2023-06-10T14:03:34;3.03;;;2.40;;
69083;SDS011;56185;48.526;9.044;2023-06-10T14:05:59;3.17;;;2.23;;
69083;SDS011;56185;48.526;9.044;2023-06-10T14:08:25;3.03;;;2.53;;
69083;SDS011;56185;48.526;9.044;2023-06-10T14:10:50;3.40;;;2.43;;
69083;SDS011;56185;48.526;9.044;2023-06-10T14:13:15;2.70;;;2.20;;
69083;SDS011;56185;48.526;9.044;2023-06-10T14:15:41;3.45;;;2.50;;
69083;SDS011;56185;48.526;9.044;2023-06-10T14:18:06;4.10;;;2.60;;
69083;SDS011;56185;48.526;9.044;2023-06-10T14:20:31;3.23;;;2.70;;
69083;SDS011;56185;48.526;9.044;2023-06-10T14:22:57;4.07;;;2.57;;
69083;SDS011;56185;48.526;9.044;2023-06-10T14:25:22;3.65;;;2.50;;
69083;SDS011;56185;48.526;9.044;2023-06-10T14:27:47;3.40;;;2.80;;
69083;SDS011;56185;48.526;9.044;2023-06-10T14:30:13;4.87;;;2.73;;
69083;SDS011;56185;48.526;9.044;2023-06-10T14:32:39;3.40;;;2.60;;
69083;SDS011;56185;48.526;9.044;2023-06-10T14:35:04;3.10;;;2.30;;
69083;SDS011;56185;48.526;9.044;2023-06-10T14:37:32;3.13;;;2.30;;
69083;SDS011;56185;48.526;9.044;2023-06-10T14:39:57;3.03;;;2.30;;
69083;SDS011;56185;48.526;9.044;2023-06-10T14:42:22;2.37;;;2.07;;
69083;SDS011;56185;48.526;9.044;2023-06-10T14:44:48;3.47;;;2.20;;
69083;SDS011;56185;48.526;9.044;2023-06-10T14:47:13;2.40;;;2.20;;
69083;SDS011;56185;48.526;9.044;2023-06-10T14:49:39;2.95;;;2.40;;
69083;SDS011;56185;48.526;9.044;2023-06-10T14:52:04;3.88;;;2.33;;
69083;SDS011;56185;48.526;9.044;2023-06-10T14:54:30;3.22;;;2.25;;
69083;SDS011;56185;48.526;9.044;2023-06-10T14:56:56;2.55;;;2.22;;
69083;SDS011;56185;48.526;9.044;2023-06-10T14:59:21;2.67;;;2.38;;
69083;SDS011;56185;48.526;9.044;2023-06-10T15:01:48;4.45;;;2.50;;
69083;SDS011;56185;48.526;9.044;2023-06-10T15:04:13;3.00;;;2.70;;